Time;durP1;ratioP1;P1;durP2;ratioP2;P2;SDS_P1;SDS_P2;PMS_P1;PMS_P2;Temp;Humidity;BMP_temperature;BMP_pressure;BME280_temperature;BME280_humidity;BME280_pressure;Samples;Min_cycle;Max_cycle;Signal;HPM_P1;HPM_P2
2024/01/22 00:02:04;;;;;;;14.83;7.63;;;;;;;1.73;50.34;101018.44;6213511;22;96526;-75
2024/01/22 00:04:29;;;;;;;15.87;7.20;;;;;;;1.70;49.79;101020.97;6188008;22;96788;-75
2024/01/22 00:06:55;;;;;;;16.00;7.87;;;;;;;1.65;49.99;101013.13;6187305;22;101517;-76
2024/01/22 00:09:20;;;;;;;15.50;7.80;;;;;;;1.52;50.14;100982.78;6213408;22;97533;-76
2024/01/22 00:11:46;;;;;;;13.67;6.93;;;;;;;1.58;50.27;100998.38;6213308;22;96431;-76
2024/01/22 00:14:11;;;;;;;17.13;8.63;;;;;;;1.56;50.28;101008.72;6214886;22;96414;-75
2024/01/22 00:16:40;;;;;;;16.50;7.90;;;;;;;1.38;50.57;100990.34;6186813;22;98221;-76
2024/01/22 00:19:08;;;;;;;14.27;7.57;;;;;;;1.46;50.79;101009.44;6212973;22;97284;-80
2024/01/22 00:21:34;;;;;;;13.80;6.87;;;;;;;1.47;51.16;100995.66;6187372;22;96561;-75
2024/01/22 00:23:59;;;;;;;13.07;6.67;;;;;;;1.53;50.76;101000.03;6213312;22;96548;-75
2024/01/22 00:26:25;;;;;;;12.93;6.93;;;;;;;1.61;50.47;100990.66;6212822;22;97707;-75
2024/01/22 00:28:50;;;;;;;14.50;7.97;;;;;;;1.66;50.51;100986.44;6212887;22;97346;-76
2024/01/22 00:31:16;;;;;;;13.60;7.30;;;;;;;1.78;50.15;100993.47;6187645;22;96438;-76
2024/01/22 00:33:43;;;;;;;12.50;7.60;;;;;;;1.66;50.25;100970.00;6213410;22;96847;-75
2024/01/22 00:36:14;;;;;;;16.27;7.20;;;;;;;1.80;50.18;100989.16;6186942;22;101492;-75
2024/01/22 00:38:40;;;;;;;14.63;6.95;;;;;;;1.71;50.12;100989.06;6187309;22;97442;-75
2024/01/22 00:41:06;;;;;;;13.10;7.10;;;;;;;1.72;50.48;100990.81;6187000;22;96503;-76
2024/01/22 00:43:32;;;;;;;14.67;7.07;;;;;;;1.81;50.27;100984.03;6162140;22;96741;-82
2024/01/22 00:45:57;;;;;;;13.07;6.97;;;;;;;1.81;49.59;100994.38;6212737;22;97262;-76
2024/01/22 00:48:23;;;;;;;15.63;7.03;;;;;;;1.93;50.12;100985.88;6187125;22;100241;-76
2024/01/22 00:50:49;;;;;;;13.50;7.30;;;;;;;1.99;49.75;100983.38;6213053;22;96465;-76
2024/01/22 00:53:15;;;;;;;18.43;7.63;;;;;;;2.01;49.89;100963.53;6213115;22;96720;-75
2024/01/22 00:55:40;;;;;;;18.93;7.60;;;;;;;1.86;49.44;100952.13;6187543;22;97606;-75
2024/01/22 00:58:06;;;;;;;11.93;6.67;;;;;;;1.93;49.77;100977.25;6215951;22;97206;-79
2024/01/22 01:00:31;;;;;;;12.20;6.30;;;;;;;1.62;49.84;100932.88;6163276;22;96507;-76
2024/01/22 01:02:57;;;;;;;12.47;6.30;;;;;;;1.66;49.79;100950.19;6163418;22;96764;-76
2024/01/22 01:05:22;;;;;;;11.87;6.20;;;;;;;1.70;49.69;100949.38;6213084;22;100967;-76
2024/01/22 01:07:48;;;;;;;11.20;7.00;;;;;;;1.89;49.41;100970.28;6188219;22;98407;-76
2024/01/22 01:10:13;;;;;;;12.97;6.27;;;;;;;1.99;49.57;100978.19;6163141;22;96536;-77
2024/01/22 01:12:39;;;;;;;16.07;6.00;;;;;;;1.99;49.93;100965.22;6214240;22;96830;-76
2024/01/22 01:15:08;;;;;;;11.03;5.83;;;;;;;2.06;49.67;100970.47;6187851;22;101738;-76
2024/01/22 01:17:33;;;;;;;9.77;5.47;;;;;;;1.79;49.98;100946.88;6188364;22;97465;-76
2024/01/22 01:19:59;;;;;;;8.87;4.97;;;;;;;1.71;49.61;100943.31;6214035;22;96465;-76
2024/01/22 01:22:25;;;;;;;8.70;4.50;;;;;;;1.81;49.60;100946.91;6216118;22;96694;-76
2024/01/22 01:24:50;;;;;;;12.67;5.23;;;;;;;1.92;49.50;100962.56;6162807;22;100712;-78
2024/01/22 01:27:19;;;;;;;11.83;5.57;;;;;;;1.95;49.30;100947.94;6213750;22;97296;-79
2024/01/22 01:29:44;;;;;;;9.30;4.80;;;;;;;2.07;48.99;100949.78;6187938;22;96504;-75
2024/01/22 01:32:10;;;;;;;10.37;5.07;;;;;;;2.07;49.35;100954.09;6214209;22;96794;-76
2024/01/22 01:34:35;;;;;;;10.30;5.23;;;;;;;1.95;49.59;100949.63;6188025;22;100192;-75
2024/01/22 01:37:01;;;;;;;9.57;4.27;;;;;;;1.94;49.62;100950.50;6213739;22;97144;-78
2024/01/22 01:39:27;;;;;;;9.03;4.73;;;;;;;1.85;49.80;100930.53;6214154;22;96523;-75
2024/01/22 01:41:52;;;;;;;11.03;4.80;;;;;;;1.92;49.41;100937.56;6188475;22;96826;-76
2024/01/22 01:44:18;;;;;;;12.17;5.63;;;;;;;1.97;49.14;100932.41;6213712;22;97297;-75
2024/01/22 01:46:44;;;;;;;8.73;4.13;;;;;;;2.01;49.60;100927.28;6188653;22;98409;-75
2024/01/22 01:49:10;;;;;;;10.60;4.93;;;;;;;1.89;48.92;100892.59;6188388;22;96477;-75
2024/01/22 01:51:37;;;;;;;7.60;4.30;;;;;;;2.09;48.91;100913.53;6163201;22;96804;-75
2024/01/22 01:54:05;;;;;;;8.63;4.13;;;;;;;2.14;48.62;100906.69;6187052;22;100928;-76
2024/01/22 01:56:30;;;;;;;7.97;4.13;;;;;;;2.19;48.27;100903.28;6213622;22;97560;-76
2024/01/22 01:58:57;;;;;;;10.90;4.03;;;;;;;2.36;48.03;100885.31;6188553;22;96482;-78
2024/01/22 02:01:22;;;;;;;9.83;4.50;;;;;;;2.36;47.93;100889.63;6213937;22;96778;-76
2024/01/22 02:03:48;;;;;;;8.47;4.00;;;;;;;2.42;47.75;100895.72;6188030;22;98134;-75
2024/01/22 02:06:13;;;;;;;8.60;4.20;;;;;;;2.49;47.80;100891.44;6187512;22;101281;-75
2024/01/22 02:08:39;;;;;;;9.03;4.50;;;;;;;2.55;47.78;100886.31;6188284;22;96470;-75
2024/01/22 02:11:05;;;;;;;8.97;4.60;;;;;;;2.54;47.39;100878.53;6188879;22;96799;-75
2024/01/22 02:13:31;;;;;;;10.20;5.10;;;;;;;2.59;47.63;100874.22;6162766;22;100991;-76
2024/01/22 02:15:56;;;;;;;9.83;4.60;;;;;;;2.61;47.42;100869.94;6213585;22;97822;-76
2024/01/22 02:18:22;;;;;;;7.50;4.07;;;;;;;2.65;48.02;100864.78;6213317;22;96420;-76
2024/01/22 02:20:47;;;;;;;8.37;4.30;;;;;;;2.66;47.93;100874.28;6213885;22;96805;-76
2024/01/22 02:23:13;;;;;;;7.80;4.50;;;;;;;2.63;47.67;100868.22;6213535;22;97357;-77
2024/01/22 02:25:38;;;;;;;7.17;4.40;;;;;;;2.60;47.79;100850.94;6213608;22;97314;-75
2024/01/22 02:28:04;;;;;;;8.40;4.50;;;;;;;2.48;47.50;100822.34;6188401;22;96548;-76
2024/01/22 02:30:29;;;;;;;9.37;4.57;;;;;;;2.70;47.16;100854.44;6213943;22;96722;-75
2024/01/22 02:32:55;;;;;;;14.00;4.33;;;;;;;2.74;46.75;100848.44;6213508;22;97351;-76
2024/01/22 02:35:21;;;;;;;8.17;4.43;;;;;;;2.76;47.07;100843.25;6213777;22;97340;-75
2024/01/22 02:37:47;;;;;;;8.00;4.60;;;;;;;2.83;46.70;100848.47;6188561;22;96652;-76
2024/01/22 02:40:13;;;;;;;13.47;4.33;;;;;;;2.84;46.47;100838.97;6213727;22;96715;-75
2024/01/22 02:42:38;;;;;;;7.27;4.53;;;;;;;2.83;46.36;100838.13;6187338;22;100924;-75
2024/01/22 02:45:04;;;;;;;8.97;4.50;;;;;;;2.88;46.16;100840.72;6213279;22;100983;-75
2024/01/22 02:47:30;;;;;;;7.60;4.37;;;;;;;2.88;46.50;100828.63;6213804;22;96499;-76
2024/01/22 02:49:55;;;;;;;7.23;4.20;;;;;;;2.87;46.41;100844.19;6215386;22;96740;-75
2024/01/22 02:52:21;;;;;;;10.40;4.83;;;;;;;2.69;46.30;100806.06;6187888;22;98397;-76
2024/01/22 02:54:47;;;;;;;8.53;4.87;;;;;;;2.51;46.31;100764.47;6212937;22;97391;-76
2024/01/22 02:57:12;;;;;;;9.07;4.83;;;;;;;2.58;46.54;100779.19;6215336;22;96350;-76
2024/01/22 02:59:40;;;;;;;7.90;4.20;;;;;;;2.76;46.71;100812.13;6188623;22;96834;-75
2024/01/22 03:02:06;;;;;;;13.13;4.50;;;;;;;2.68;46.52;100797.41;6187390;22;101573;-76
2024/01/22 03:04:32;;;;;;;9.03;5.03;;;;;;;2.68;46.82;100800.00;6188014;22;97485;-75
2024/01/22 03:06:57;;;;;;;7.70;4.63;;;;;;;2.74;46.34;100817.31;6162211;22;96509;-75
2024/01/22 03:09:23;;;;;;;8.57;4.37;;;;;;;2.76;46.22;100831.13;6188330;22;96603;-76
2024/01/22 03:11:48;;;;;;;7.17;4.43;;;;;;;2.64;46.59;100800.81;6213178;22;101256;-76
2024/01/22 03:14:14;;;;;;;9.37;4.63;;;;;;;2.82;46.75;100819.94;6187773;22;97392;-75
2024/01/22 03:16:39;;;;;;;7.60;4.20;;;;;;;2.68;46.55;100801.72;6213702;22;96444;-75
2024/01/22 03:19:05;;;;;;;12.23;5.20;;;;;;;2.77;46.46;100814.75;6187791;22;96774;-75
2024/01/22 03:21:30;;;;;;;8.57;4.83;;;;;;;2.63;46.17;100793.06;6213096;22;97311;-76
2024/01/22 03:23:56;;;;;;;8.47;4.60;;;;;;;2.53;46.54;100768.81;6188168;22;101191;-75
2024/01/22 03:26:22;;;;;;;9.47;4.30;;;;;;;2.83;46.51;100808.72;6188191;22;96493;-76
2024/01/22 03:28:49;;;;;;;8.60;4.90;;;;;;;2.82;46.59;100791.41;6213719;22;96771;-75
2024/01/22 03:31:24;;;;;;;6.67;4.00;;;;;;;2.71;46.27;100762.88;6212642;22;97933;-75
2024/01/22 03:33:54;;;;;;;9.53;4.60;;;;;;;2.86;46.19;100782.81;6214675;22;97317;-75
2024/01/22 03:36:20;;;;;;;10.50;4.67;;;;;;;2.72;46.73;100755.06;6213703;22;96426;-75
2024/01/22 03:38:45;;;;;;;15.00;4.63;;;;;;;2.82;46.30;100768.06;6215127;22;96661;-75
2024/01/22 03:41:12;;;;;;;10.07;4.97;;;;;;;2.83;46.10;100772.44;6187329;22;99256;-75
2024/01/22 03:43:37;;;;;;;11.27;4.57;;;;;;;2.67;46.20;100730.00;6162368;22;101070;-78
2024/01/22 03:46:03;;;;;;;7.53;4.70;;;;;;;2.80;46.27;100741.31;6188023;22;96537;-76
2024/01/22 03:48:28;;;;;;;9.20;4.20;;;;;;;2.82;46.25;100736.97;6188282;22;96826;-76
2024/01/22 03:50:54;;;;;;;6.57;4.43;;;;;;;2.85;46.26;100740.47;6214493;22;97482;-76
2024/01/22 03:53:22;;;;;;;8.33;4.30;;;;;;;2.88;46.55;100734.41;6187588;22;97218;-76
2024/01/22 03:55:48;;;;;;;9.50;4.60;;;;;;;2.87;46.22;100732.66;6186754;22;96773;-76
2024/01/22 03:58:13;;;;;;;7.47;4.07;;;;;;;2.63;46.58;100705.78;6187780;22;96831;-76
2024/01/22 04:00:39;;;;;;;7.60;4.27;;;;;;;2.71;46.81;100691.13;6161752;22;100000;-76
2024/01/22 04:03:05;;;;;;;9.30;4.63;;;;;;;2.76;46.33;100688.53;6162247;22;101742;-75
2024/01/22 04:05:31;;;;;;;9.57;4.90;;;;;;;2.75;46.84;100681.63;6213513;22;96407;-75
2024/01/22 04:07:57;;;;;;;7.07;4.10;;;;;;;2.72;46.65;100681.63;6187848;22;96878;-76
2024/01/22 04:10:23;;;;;;;8.00;4.43;;;;;;;2.70;47.09;100689.38;6187255;22;100317;-77
2024/01/22 04:12:48;;;;;;;7.20;4.17;;;;;;;2.70;47.13;100684.19;6162656;22;101361;-76
2024/01/22 04:15:14;;;;;;;8.87;4.27;;;;;;;2.69;47.06;100674.69;6213293;22;96465;-76
2024/01/22 04:17:39;;;;;;;10.30;5.20;;;;;;;2.67;46.88;100665.19;6187767;22;96802;-76
2024/01/22 04:20:06;;;;;;;7.03;4.23;;;;;;;2.76;46.58;100672.13;6212055;22;97562;-77
2024/01/22 04:22:32;;;;;;;7.20;4.67;;;;;;;2.78;46.80;100678.19;6187333;22;101114;-76
2024/01/22 04:24:57;;;;;;;8.37;4.40;;;;;;;2.71;46.26;100657.44;6213332;22;96537;-76
2024/01/22 04:27:23;;;;;;;6.93;3.83;;;;;;;2.91;46.03;100667.88;6187711;22;96914;-75
2024/01/22 04:29:48;;;;;;;6.73;3.87;;;;;;;2.86;46.05;100654.00;6187282;22;100701;-76
2024/01/22 04:32:14;;;;;;;9.50;3.70;;;;;;;2.76;45.81;100618.53;6215501;22;97542;-75
2024/01/22 04:34:39;;;;;;;9.57;4.67;;;;;;;2.95;45.58;100640.22;6188848;22;96492;-75
2024/01/22 04:37:05;;;;;;;10.57;3.80;;;;;;;2.78;45.35;100593.50;6214973;22;96875;-75
2024/01/22 04:39:31;;;;;;;6.37;3.77;;;;;;;2.89;45.37;100615.13;6188430;22;101441;-76
2024/01/22 04:41:57;;;;;;;9.03;4.53;;;;;;;3.04;44.73;100618.63;6188346;22;98411;-75
2024/01/22 04:44:22;;;;;;;7.00;3.30;;;;;;;3.08;45.18;100613.41;6213897;22;96442;-75
2024/01/22 04:46:48;;;;;;;6.80;3.60;;;;;;;3.05;44.56;100600.44;6214358;22;96948;-77
2024/01/22 04:49:13;;;;;;;8.93;4.07;;;;;;;3.09;44.51;100590.97;6188359;22;98102;-76
2024/01/22 04:51:44;;;;;;;7.53;3.50;;;;;;;3.11;44.63;100590.09;6213991;22;97141;-75
2024/01/22 04:54:10;;;;;;;7.57;3.67;;;;;;;3.21;44.28;100600.47;6224138;22;96706;-75
2024/01/22 04:56:45;;;;;;;5.97;3.30;;;;;;;3.14;44.49;100595.28;6246849;22;96765;-75
2024/01/22 04:59:11;;;;;;;7.27;3.80;;;;;;;3.14;44.81;100600.47;6219070;22;97699;-76
2024/01/22 05:01:37;;;;;;;7.97;3.67;;;;;;;3.17;44.98;100584.00;6219273;22;97573;-75
2024/01/22 05:04:03;;;;;;;10.90;4.30;;;;;;;2.94;45.17;100558.94;6219544;22;96409;-77
2024/01/22 05:06:29;;;;;;;7.67;3.50;;;;;;;2.89;45.28;100547.69;6246763;22;96704;-76
2024/01/22 05:08:55;;;;;;;7.57;3.57;;;;;;;2.91;45.32;100553.78;6192548;22;101173;-75
2024/01/22 05:11:20;;;;;;;7.30;4.13;;;;;;;2.91;45.27;100571.06;6218733;22;97419;-76
2024/01/22 05:13:49;;;;;;;6.27;3.70;;;;;;;3.02;45.40;100577.09;6193500;22;96580;-76
2024/01/22 05:16:19;;;;;;;7.10;4.10;;;;;;;2.94;45.25;100565.88;6219011;22;96617;-75
2024/01/22 05:18:45;;;;;;;6.63;3.77;;;;;;;2.87;45.77;100553.75;6192811;22;100903;-76
2024/01/22 05:21:11;;;;;;;9.07;4.07;;;;;;;2.94;45.37;100553.78;6192461;22;100240;-75
2024/01/22 05:23:37;;;;;;;5.33;3.20;;;;;;;2.92;45.03;100546.84;6193763;22;96553;-75
2024/01/22 05:26:03;;;;;;;7.87;3.90;;;;;;;3.08;45.30;100547.69;6219772;22;96461;-76
2024/01/22 05:28:29;;;;;;;8.53;3.93;;;;;;;3.05;44.95;100533.00;6192887;22;100965;-76
2024/01/22 05:30:54;;;;;;;6.00;3.70;;;;;;;2.84;45.04;100482.00;6218784;22;97206;-76
2024/01/22 05:33:20;;;;;;;6.87;3.50;;;;;;;3.10;45.01;100525.22;6192794;22;96455;-78
2024/01/22 05:35:47;;;;;;;6.00;3.87;;;;;;;3.11;45.24;100525.25;6193446;22;96713;-76
2024/01/22 05:38:12;;;;;;;7.27;4.00;;;;;;;3.17;44.92;100526.94;6218690;22;97767;-80
2024/01/22 05:40:38;;;;;;;9.83;4.07;;;;;;;3.00;45.29;100485.47;6218445;22;97293;-77
2024/01/22 05:43:03;;;;;;;7.23;3.47;;;;;;;3.15;44.38;100510.53;6246491;22;96493;-76
2024/01/22 05:45:29;;;;;;;8.00;4.10;;;;;;;3.22;44.96;100509.66;6168182;22;96926;-75
2024/01/22 05:47:54;;;;;;;10.13;4.50;;;;;;;3.21;44.83;100517.44;6193016;22;100909;-76
2024/01/22 05:50:20;;;;;;;9.23;4.63;;;;;;;3.26;45.43;100511.41;6246408;22;97476;-76
2024/01/22 05:52:46;;;;;;;7.33;3.77;;;;;;;3.14;45.37;100503.59;6219193;22;96482;-75
2024/01/22 05:55:12;;;;;;;9.93;3.90;;;;;;;3.12;45.16;100493.25;6193195;22;96899;-75
2024/01/22 05:57:38;;;;;;;10.70;4.03;;;;;;;3.26;45.15;100516.59;6167336;22;101102;-76
2024/01/22 06:00:09;;;;;;;8.73;4.90;;;;;;;3.22;45.30;100506.19;6218343;22;97383;-76
2024/01/22 06:02:38;;;;;;;6.63;3.80;;;;;;;3.26;45.05;100503.63;6220970;22;96703;-75
2024/01/22 06:05:04;;;;;;;10.23;4.23;;;;;;;3.17;45.06;100488.03;6193479;22;96445;-76
2024/01/22 06:07:29;;;;;;;9.77;4.73;;;;;;;3.15;44.91;100475.06;6167396;22;101718;-75
2024/01/22 06:09:54;;;;;;;5.90;3.97;;;;;;;3.27;44.96;100494.94;6218502;22;97139;-76
2024/01/22 06:12:20;;;;;;;8.67;4.13;;;;;;;3.35;44.76;100497.53;6219088;22;96491;-75
2024/01/22 06:14:45;;;;;;;9.40;3.70;;;;;;;3.39;44.48;100510.50;6193811;22;96797;-75
2024/01/22 06:17:11;;;;;;;6.10;3.60;;;;;;;3.39;44.01;100509.63;6167522;22;100860;-76
2024/01/22 06:19:36;;;;;;;6.47;3.90;;;;;;;3.47;43.97;100509.63;6192833;22;101029;-75
2024/01/22 06:22:02;;;;;;;6.40;3.77;;;;;;;3.52;44.26;100529.53;6245649;22;96386;-75
2024/01/22 06:24:27;;;;;;;6.33;3.43;;;;;;;3.62;44.22;100536.41;6218837;22;96803;-75
2024/01/22 06:26:53;;;;;;;6.57;3.27;;;;;;;3.55;43.89;100526.03;6218448;22;97545;-77
2024/01/22 06:29:19;;;;;;;7.70;3.80;;;;;;;3.34;44.03;100480.22;6218494;22;97302;-75
2024/01/22 06:31:44;;;;;;;11.93;3.80;;;;;;;3.71;43.98;100545.91;6246157;22;96429;-76
2024/01/22 06:34:11;;;;;;;7.30;4.53;;;;;;;3.71;43.59;100534.66;6218720;22;96839;-76
2024/01/22 06:36:37;;;;;;;7.30;3.97;;;;;;;3.70;43.47;100530.34;6218939;22;97652;-76
2024/01/22 06:39:03;;;;;;;7.23;3.83;;;;;;;3.71;43.79;100516.50;6246068;22;97936;-75
2024/01/22 06:41:29;;;;;;;10.63;4.47;;;;;;;3.72;43.62;100516.47;6193035;22;96658;-77
2024/01/22 06:43:54;;;;;;;6.93;4.57;;;;;;;3.63;43.99;100506.13;6167556;22;96819;-75
2024/01/22 06:46:20;;;;;;;8.77;4.03;;;;;;;3.72;43.77;100510.41;6245251;22;97506;-76
2024/01/22 06:48:45;;;;;;;7.77;4.00;;;;;;;3.74;43.94;100504.34;6192792;22;100499;-76
2024/01/22 06:51:11;;;;;;;11.03;4.03;;;;;;;3.79;43.83;100506.94;6193023;22;96396;-76
2024/01/22 06:53:37;;;;;;;9.67;4.50;;;;;;;3.62;43.79;100476.69;6166868;22;96777;-76
2024/01/22 06:56:03;;;;;;;13.53;3.97;;;;;;;3.64;43.82;100476.72;6218494;22;97237;-76
2024/01/22 06:58:28;;;;;;;9.30;4.57;;;;;;;3.89;44.20;100516.41;6245639;22;97378;-76
2024/01/22 07:00:53;;;;;;;9.33;4.27;;;;;;;3.86;44.16;100498.25;6192798;22;96603;-78
2024/01/22 07:03:22;;;;;;;12.83;4.40;;;;;;;3.73;43.83;100449.84;6218905;22;96811;-76
2024/01/22 07:05:48;;;;;;;9.87;4.83;;;;;;;4.09;43.84;100491.22;6193243;22;98060;-75
2024/01/22 07:08:14;;;;;;;7.03;3.97;;;;;;;4.23;43.78;100501.56;6192547;22;98987;-77
2024/01/22 07:10:40;;;;;;;10.47;5.17;;;;;;;3.99;43.69;100465.31;6218230;22;96421;-76
2024/01/22 07:13:06;;;;;;;7.73;4.60;;;;;;;4.15;43.73;100494.66;6218927;22;96779;-76
2024/01/22 07:15:31;;;;;;;9.70;3.83;;;;;;;4.19;43.61;100501.56;6192494;22;97859;-76
2024/01/22 07:17:57;;;;;;;13.30;4.93;;;;;;;4.18;43.74;100500.72;6192777;22;97403;-76
2024/01/22 07:20:23;;;;;;;11.87;4.30;;;;;;;4.02;44.06;100462.69;6218558;22;96441;-76
2024/01/22 07:22:48;;;;;;;8.80;4.77;;;;;;;4.16;44.10;100470.41;6218678;22;96882;-76
2024/01/22 07:25:15;;;;;;;9.10;4.40;;;;;;;4.13;44.19;100466.09;6217979;22;101284;-77
2024/01/22 07:27:42;;;;;;;9.37;4.47;;;;;;;4.21;44.25;100482.50;6193103;22;97788;-75
2024/01/22 07:30:11;;;;;;;6.77;4.17;;;;;;;4.17;44.23;100457.41;6218613;22;96493;-76
2024/01/22 07:32:37;;;;;;;10.53;4.77;;;;;;;4.27;44.72;100466.88;6219156;22;96820;-76
2024/01/22 07:35:07;;;;;;;11.13;4.87;;;;;;;4.30;44.31;100463.38;6244953;22;97936;-76
2024/01/22 07:37:37;;;;;;;11.63;4.93;;;;;;;4.37;44.72;100464.25;6192553;22;97381;-77
2024/01/22 07:40:04;;;;;;;13.43;5.13;;;;;;;4.38;44.84;100448.63;6192862;22;96440;-76
2024/01/22 07:42:40;;;;;;;11.93;4.30;;;;;;;4.27;45.06;100424.44;6167386;22;96882;-76
2024/01/22 07:45:06;;;;;;;19.20;8.33;;;;;;;4.13;45.03;100382.97;6192374;22;100151;-76
2024/01/22 07:47:33;;;;;;;20.67;8.80;;;;;;;4.46;44.80;100452.03;6218038;22;97804;-76
2024/01/22 07:49:59;;;;;;;32.23;12.07;;;;;;;4.42;45.01;100437.34;6193057;22;96623;-75
2024/01/22 07:52:24;;;;;;;49.73;15.33;;;;;;;4.39;45.41;100432.13;6246233;22;96676;-80
2024/01/22 07:54:50;;;;;;;29.40;10.40;;;;;;;4.39;45.56;100441.69;6245029;22;97786;-76
2024/01/22 07:57:16;;;;;;;23.73;8.13;;;;;;;4.32;45.69;100431.31;6192341;22;100567;-76
2024/01/22 07:59:42;;;;;;;38.97;13.00;;;;;;;4.33;45.62;100429.59;6192128;22;96478;-76
2024/01/22 08:02:08;;;;;;;28.20;10.10;;;;;;;4.24;45.37;100401.06;6192264;22;96857;-76
2024/01/22 08:04:34;;;;;;;42.37;15.03;;;;;;;4.45;45.32;100429.53;6217706;22;97678;-76
2024/01/22 08:07:02;;;;;;;21.17;9.37;;;;;;;4.52;45.53;100431.19;6217906;22;97441;-76
2024/01/22 08:09:28;;;;;;;14.63;6.37;;;;;;;4.52;45.55;100414.72;6218755;22;96576;-76
2024/01/22 08:11:53;;;;;;;15.70;6.93;;;;;;;4.51;45.64;100402.63;6192827;22;96725;-75
2024/01/22 08:14:19;;;;;;;14.67;6.70;;;;;;;4.60;45.74;100399.09;6192185;22;101334;-79
2024/01/22 08:16:46;;;;;;;31.17;9.80;;;;;;;4.56;46.18;100400.81;6217970;22;100899;-76
2024/01/22 08:19:11;;;;;;;22.43;8.63;;;;;;;4.54;45.68;100380.06;6245571;22;96383;-76
2024/01/22 08:21:37;;;;;;;31.67;12.73;;;;;;;4.47;45.91;100364.50;6218049;22;96710;-77
2024/01/22 08:24:03;;;;;;;31.30;13.30;;;;;;;4.69;46.00;100383.41;6217222;22;97853;-76
2024/01/22 08:26:28;;;;;;;27.47;10.50;;;;;;;4.74;46.08;100399.78;6217447;22;101448;-77
2024/01/22 08:28:53;;;;;;;12.33;5.80;;;;;;;4.57;45.96;100367.88;6217986;22;96566;-76
2024/01/22 08:31:19;;;;;;;45.17;16.43;;;;;;;4.56;45.92;100350.56;6192126;22;96749;-80
2024/01/22 08:33:44;;;;;;;38.57;13.53;;;;;;;4.71;45.85;100366.91;6166643;22;100814;-78
2024/01/22 08:36:11;;;;;;;86.53;28.60;;;;;;;4.73;45.88;100357.31;6217559;22;97833;-77
2024/01/22 08:38:36;;;;;;;26.60;11.33;;;;;;;4.73;45.92;100348.66;6218089;22;96557;-76
2024/01/22 08:41:03;;;;;;;16.40;7.10;;;;;;;4.80;46.17;100339.94;6192837;22;96827;-76
2024/01/22 08:43:29;;;;;;;27.83;11.67;;;;;;;4.86;46.42;100339.88;6192101;22;101296;-76
2024/01/22 08:45:55;;;;;;;39.83;16.50;;;;;;;4.69;45.73;100326.19;6217442;22;98100;-77
2024/01/22 08:48:20;;;;;;;16.47;7.90;;;;;;;4.90;46.33;100325.94;6217196;22;96551;-81
2024/01/22 08:50:46;;;;;;;13.20;7.10;;;;;;;4.96;46.13;100323.28;6192186;22;96769;-76
2024/01/22 08:53:11;;;;;;;23.10;8.47;;;;;;;4.89;46.26;100316.44;6217140;22;100525;-77
2024/01/22 08:55:37;;;;;;;19.63;8.63;;;;;;;4.83;46.43;100311.31;6216946;22;99780;-76
2024/01/22 08:58:04;;;;;;;22.17;9.80;;;;;;;4.83;47.01;100287.91;6217786;22;96511;-77
2024/01/22 09:00:30;;;;;;;25.63;10.07;;;;;;;4.81;46.80;100313.06;6217352;22;96834;-76
2024/01/22 09:02:56;;;;;;;15.13;6.80;;;;;;;4.68;46.95;100275.03;6217462;22;97399;-76
2024/01/22 09:05:22;;;;;;;11.83;6.03;;;;;;;4.74;46.71;100277.56;6217879;22;97809;-76
2024/01/22 09:07:48;;;;;;;19.30;8.07;;;;;;;4.71;46.78;100255.09;6191987;22;96543;-76
2024/01/22 09:10:14;;;;;;;12.33;6.13;;;;;;;4.96;46.91;100279.06;6217616;22;96794;-83
2024/01/22 09:12:40;;;;;;;13.63;6.97;;;;;;;5.06;46.66;100285.03;6216842;22;97272;-79
2024/01/22 09:15:07;;;;;;;17.93;7.73;;;;;;;5.12;46.04;100313.56;6166520;22;101034;-85
2024/01/22 09:17:33;;;;;;;18.10;6.80;;;;;;;5.18;45.90;100313.50;6219122;22;96433;-76
2024/01/22 09:19:59;;;;;;;15.83;7.27;;;;;;;5.38;45.54;100305.44;6219278;22;96782;-77
2024/01/22 09:22:28;;;;;;;26.67;11.27;;;;;;;5.34;45.60;100306.34;6192909;22;101026;-78
2024/01/22 09:24:54;;;;;;;33.90;11.23;;;;;;;5.26;45.01;100287.34;6218702;22;97277;-76
2024/01/22 09:27:20;;;;;;;33.23;11.77;;;;;;;5.16;45.29;100265.81;6193355;22;96533;-77
2024/01/22 09:29:46;;;;;;;16.17;6.33;;;;;;;5.24;45.48;100298.69;6193996;22;96914;-77
2024/01/22 09:32:11;;;;;;;18.87;7.17;;;;;;;5.43;45.68;100321.84;6218727;22;97778;-77
2024/01/22 09:34:37;;;;;;;13.87;5.37;;;;;;;5.33;44.91;100298.56;6192902;22;97752;-76
2024/01/22 09:37:04;;;;;;;11.43;5.13;;;;;;;5.51;44.80;100302.66;6167220;22;96477;-76
2024/01/22 09:39:30;;;;;;;12.83;5.33;;;;;;;5.48;44.70;100284.50;6218775;22;96527;-76
2024/01/22 09:41:57;;;;;;;19.77;9.63;;;;;;;5.54;44.56;100332.13;6192815;22;97064;-76
2024/01/22 09:44:24;;;;;;;14.50;6.47;;;;;;;5.75;44.42;100333.56;6192727;22;100924;-76
2024/01/22 09:46:50;;;;;;;36.50;14.97;;;;;;;5.79;44.22;100304.00;6218814;22;96574;-77
2024/01/22 09:49:15;;;;;;;45.73;15.83;;;;;;;5.53;44.35;100246.25;6218858;22;96705;-77
2024/01/22 09:51:44;;;;;;;17.83;8.27;;;;;;;5.66;44.53;100290.28;6245813;22;98007;-83
2024/01/22 09:54:20;;;;;;;20.53;9.60;;;;;;;5.29;44.64;100219.63;6192773;22;98167;-83
2024/01/22 09:56:54;;;;;;;26.93;11.17;;;;;;;5.47;44.75;100273.22;6219827;22;96516;-76
2024/01/22 09:59:24;;;;;;;18.83;8.07;;;;;;;5.47;45.12;100249.78;6219497;22;96624;-77
2024/01/22 10:01:52;;;;;;;28.77;10.73;;;;;;;5.45;45.33;100212.50;6192382;22;100925;-79
2024/01/22 10:04:18;;;;;;;31.73;13.17;;;;;;;5.36;45.08;100218.69;6192890;22;97272;-76
2024/01/22 10:06:48;;;;;;;33.27;14.03;;;;;;;5.39;44.93;100199.56;6192835;22;96616;-76
2024/01/22 10:09:15;;;;;;;25.07;10.50;;;;;;;5.44;44.88;100196.00;6219056;22;97011;-77
2024/01/22 10:11:42;;;;;;;20.67;9.67;;;;;;;5.44;43.78;100172.59;6192395;22;101571;-77
2024/01/22 10:14:08;;;;;;;11.30;5.83;;;;;;;5.66;43.24;100183.50;6192787;22;101469;-77
2024/01/22 10:16:33;;;;;;;16.53;6.53;;;;;;;5.70;41.58;100157.41;6193033;22;96529;-77
2024/01/22 10:19:00;;;;;;;19.23;6.53;;;;;;;5.95;41.09;100181.34;6219091;22;96742;-76
2024/01/22 10:21:26;;;;;;;21.50;8.80;;;;;;;5.99;40.41;100157.81;6192613;22;97827;-77
2024/01/22 10:24:05;;;;;;;11.70;5.40;;;;;;;6.25;39.93;100190.34;6217592;22;100864;-78
2024/01/22 10:26:31;;;;;;;8.77;4.13;;;;;;;6.34;39.48;100188.44;6245493;22;96430;-80
2024/01/22 10:29:20;;;;;;;12.93;5.40;;;;;;;6.40;38.80;100190.09;6192257;22;97015;-81
2024/01/22 10:32:01;;;;;;;6.75;3.63;;;;;;;6.46;38.52;100182.16;6192582;22;97618;-82
2024/01/22 10:34:30;;;;;;;8.30;4.03;;;;;;;6.61;38.49;100207.06;6244792;22;97505;-76
2024/01/22 10:37:09;;;;;;;11.10;3.65;;;;;;;6.83;38.77;100259.66;6218007;22;96473;-77
2024/01/22 10:39:36;;;;;;;8.43;4.07;;;;;;;6.84;39.14;100297.06;6218494;22;96672;-78
2024/01/22 10:42:14;;;;;;;6.10;3.25;;;;;;;6.93;38.30;100256.00;6218005;22;100531;-76
2024/01/22 10:44:44;;;;;;;26.67;9.65;;;;;;;6.94;37.49;100241.19;6218385;22;97777;-77
2024/01/22 10:47:11;;;;;;;58.03;18.20;;;;;;;7.00;37.58;100254.97;6218284;22;96657;-76
2024/01/22 10:49:36;;;;;;;30.63;9.98;;;;;;;7.01;37.57;100241.03;6217900;22;96714;-77
2024/01/22 10:52:03;;;;;;;28.25;9.05;;;;;;;7.05;36.88;100241.84;6191578;22;100943;-76
2024/01/22 10:54:33;;;;;;;15.05;7.05;;;;;;;7.06;37.42;100222.66;6186790;22;97308;-79
2024/01/22 10:57:09;;;;;;;11.35;6.25;;;;;;;7.02;37.60;100200.13;6187908;22;96464;-76
2024/01/22 10:59:38;;;;;;;22.13;7.65;;;;;;;6.86;38.42;100131.75;6188191;22;96523;-76
2024/01/22 11:02:05;;;;;;;13.68;5.15;;;;;;;6.94;38.78;100128.97;6162177;22;99257;-76
2024/01/22 11:04:55;;;;;;;10.98;5.63;;;;;;;6.85;38.73;100116.13;6213295;22;96519;-75
2024/01/22 11:07:28;;;;;;;12.48;6.38;;;;;;;6.75;38.41;100142.44;6187430;22;96736;-82
2024/01/22 11:09:55;;;;;;;32.08;12.68;;;;;;;6.63;38.45;100155.69;6188000;22;97139;-82
2024/01/22 11:12:22;;;;;;;24.80;11.10;;;;;;;6.52;38.23;100155.09;6161668;22;100876;-80
2024/01/22 11:14:47;;;;;;;11.10;5.60;;;;;;;6.41;38.35;100168.31;6186929;22;97282;-76
2024/01/22 11:17:15;;;;;;;12.70;6.93;;;;;;;6.42;38.54;100182.22;6212103;22;96451;-81
2024/01/22 11:19:40;;;;;;;12.60;6.95;;;;;;;6.28;38.69;100193.78;6187185;22;96828;-76
2024/01/22 11:22:09;;;;;;;12.43;5.95;;;;;;;6.44;38.37;100194.34;6186499;22;97815;-82
2024/01/22 11:24:34;;;;;;;16.10;7.75;;;;;;;6.38;38.25;100177.97;6186812;22;97281;-78